Weather at Banff Airport

Public forecast

Using degrees Celsius for public forecast. Weather courtesy of forecast.io.

Closest aviation weather report (METAR) to Banff Airport

Closest report is Calgary / Springbank Airport, 44.4 nm (82.2 km) E.

2024/05/28 22:00 (retrieved 55 minutes ago)

CYBW 282200Z AUTO 16016KT 9SM FEW076 BKN130 BKN150 20/06 A2984 RMK SLP107 DENSITY ALT 5600FT

Closest aviation forecast (TAF) to Banff Airport

Closest forecast is Calgary / Springbank Airport, 44.4 nm (82.2 km) E.

2024/05/28 18:00 (retrieved 5 hours ago)

TAF CYBW 281743Z 2818/2904 VRB03KT P6SM BKN220 BECMG 2818/2820 16012G22KT FM282100 18014G24KT P6SM FEW090 BKN220 FM282300 21015G25KT P6SM FEW070 BKN120 TEMPO 2823/2904 VRB25G40KT P6SM -SHRA VCTS RMK FCST BASED ON AUTO OBS NXT FCST BY 290000Z